createdAt,value
2019-03-24T00:02:13.090Z,34.83
2019-03-24T00:04:46.746Z,27.83
2019-03-24T00:07:21.695Z,27.40
2019-03-24T00:09:53.784Z,26.77
2019-03-24T00:12:29.435Z,30.20
2019-03-24T00:15:02.884Z,28.57
2019-03-24T00:17:38.039Z,28.70
2019-03-24T00:20:13.562Z,22.97
2019-03-24T00:22:47.854Z,25.53
2019-03-24T00:25:21.479Z,28.23
2019-03-24T00:27:57.121Z,29.83
2019-03-24T00:30:31.519Z,31.10
2019-03-24T00:33:07.770Z,26.40
2019-03-24T00:35:42.127Z,32.30
2019-03-24T00:38:14.479Z,26.00
2019-03-24T00:40:47.233Z,27.33
2019-03-24T00:43:20.709Z,27.57
2019-03-24T00:45:56.183Z,24.50
2019-03-24T00:48:30.777Z,21.97
2019-03-24T00:51:03.820Z,22.87
2019-03-24T00:53:36.914Z,26.23
2019-03-24T00:56:12.542Z,29.60
2019-03-24T00:58:48.546Z,30.83
2019-03-24T01:01:20.907Z,37.00
2019-03-24T01:03:55.278Z,26.00
2019-03-24T01:06:29.577Z,25.37
2019-03-24T01:09:02.111Z,24.47
2019-03-24T01:11:35.009Z,29.40
2019-03-24T01:14:09.780Z,30.53
2019-03-24T01:16:41.981Z,25.63
2019-03-24T01:19:14.590Z,27.00
2019-03-24T01:21:49.008Z,33.83
2019-03-24T01:24:21.176Z,26.47
2019-03-24T01:26:53.976Z,25.70
2019-03-24T01:29:27.010Z,27.43
2019-03-24T01:32:02.776Z,25.07
2019-03-24T01:34:37.016Z,30.17
2019-03-24T01:37:11.197Z,26.10
2019-03-24T01:39:44.012Z,33.37
2019-03-24T01:42:19.773Z,26.10
2019-03-24T01:44:53.215Z,29.07
2019-03-24T01:47:26.205Z,24.50
2019-03-24T01:50:00.780Z,27.47
2019-03-24T01:52:32.688Z,28.93
2019-03-24T01:55:06.352Z,32.50
2019-03-24T01:57:43.465Z,27.57
2019-03-24T02:00:15.381Z,28.13
2019-03-24T02:02:49.496Z,28.07
2019-03-24T02:05:23.255Z,27.20
2019-03-24T02:07:57.938Z,30.57
2019-03-24T02:10:31.277Z,22.40
2019-03-24T02:13:04.072Z,22.80
2019-03-24T02:15:37.300Z,30.47
2019-03-24T02:18:11.187Z,30.33
2019-03-24T02:20:46.870Z,34.20
2019-03-24T02:23:22.425Z,34.33
2019-03-24T02:25:55.795Z,34.73
2019-03-24T02:28:29.565Z,36.63
2019-03-24T02:31:03.566Z,30.13
2019-03-24T02:33:35.728Z,28.50
2019-03-24T02:36:11.734Z,30.57
2019-03-24T02:38:47.227Z,27.30
2019-03-24T02:41:18.984Z,28.43
2019-03-24T02:43:53.447Z,31.50
2019-03-24T02:46:26.363Z,34.73
2019-03-24T02:49:00.377Z,33.20
2019-03-24T02:51:34.502Z,34.73
2019-03-24T02:54:06.716Z,25.17
2019-03-24T02:56:38.480Z,29.20
2019-03-24T02:59:11.584Z,29.40
2019-03-24T03:01:46.440Z,22.13
2019-03-24T03:04:20.131Z,23.97
2019-03-24T03:06:53.250Z,30.10
2019-03-24T03:09:27.215Z,27.30
2019-03-24T03:11:59.547Z,34.87
2019-03-24T03:14:33.751Z,34.77
2019-03-24T03:17:07.152Z,32.03
2019-03-24T03:19:40.438Z,28.43
2019-03-24T03:22:14.639Z,29.37
2019-03-24T03:24:47.487Z,29.20
2019-03-24T03:27:21.628Z,27.47
2019-03-24T03:29:53.553Z,28.40
2019-03-24T03:32:25.784Z,32.60
2019-03-24T03:35:01.076Z,28.00
2019-03-24T03:37:34.070Z,33.57
2019-03-24T03:40:09.571Z,35.77
2019-03-24T03:42:43.442Z,38.17
2019-03-24T03:45:20.334Z,41.47
2019-03-24T03:47:56.010Z,34.40
2019-03-24T03:50:30.212Z,26.83
2019-03-24T03:53:04.807Z,28.70
2019-03-24T03:55:37.306Z,34.00
2019-03-24T03:58:12.880Z,33.83
2019-03-24T04:00:49.256Z,34.50
2019-03-24T04:03:23.867Z,40.53
2019-03-24T04:05:57.842Z,33.63
2019-03-24T04:08:30.633Z,32.30
2019-03-24T04:11:05.121Z,31.73
2019-03-24T04:13:39.086Z,34.10
2019-03-24T04:16:12.267Z,35.30
2019-03-24T04:18:45.837Z,34.87
2019-03-24T04:21:18.297Z,33.60
2019-03-24T04:23:55.222Z,36.73
2019-03-24T04:26:29.022Z,30.07
2019-03-24T04:29:03.347Z,42.87
2019-03-24T04:31:36.865Z,34.80
2019-03-24T04:34:10.508Z,32.43
2019-03-24T04:36:43.876Z,31.13
2019-03-24T04:39:15.623Z,36.87
2019-03-24T04:41:47.958Z,39.90
2019-03-24T04:44:20.797Z,45.37
2019-03-24T04:46:55.197Z,44.23
2019-03-24T04:49:27.102Z,43.40
2019-03-24T04:52:01.604Z,40.57
2019-03-24T04:54:36.100Z,35.20
2019-03-24T04:57:12.320Z,33.77
2019-03-24T04:59:47.648Z,35.90
2019-03-24T05:02:22.025Z,30.60
2019-03-24T05:04:58.300Z,33.03
2019-03-24T05:07:30.278Z,33.47
2019-03-24T05:10:04.313Z,33.17
2019-03-24T05:12:39.974Z,33.20
2019-03-24T05:15:14.213Z,33.20
2019-03-24T05:17:49.605Z,40.10
2019-03-24T05:20:21.555Z,44.13
2019-03-24T05:22:56.830Z,37.37
2019-03-24T05:25:31.718Z,33.90
2019-03-24T05:28:07.638Z,35.87
2019-03-24T05:30:42.803Z,31.97
2019-03-24T05:33:15.123Z,35.80
2019-03-24T05:35:48.840Z,33.37
2019-03-24T05:38:21.603Z,33.43
2019-03-24T05:40:54.568Z,31.80
2019-03-24T05:43:27.657Z,29.97
2019-03-24T05:46:00.238Z,30.97
2019-03-24T05:48:33.361Z,28.97
2019-03-24T05:51:07.799Z,27.27
2019-03-24T05:53:40.804Z,31.70
2019-03-24T05:56:14.163Z,36.50
2019-03-24T05:58:48.913Z,36.57
2019-03-24T06:01:22.652Z,32.43
2019-03-24T06:03:55.429Z,28.07
2019-03-24T06:06:28.640Z,30.97
2019-03-24T06:09:04.985Z,28.17
2019-03-24T06:11:40.881Z,31.23
2019-03-24T06:14:15.451Z,31.23
2019-03-24T06:16:51.913Z,30.60
2019-03-24T06:19:28.617Z,29.63
2019-03-24T06:22:02.795Z,28.57
2019-03-24T06:24:37.771Z,30.33
2019-03-24T06:27:11.725Z,30.73
2019-03-24T06:29:45.614Z,31.20
2019-03-24T06:32:20.392Z,27.70
2019-03-24T06:34:56.342Z,30.37
2019-03-24T06:37:32.924Z,33.10
2019-03-24T06:40:11.915Z,32.73
2019-03-24T06:42:50.620Z,30.30
2019-03-24T06:45:29.009Z,28.20
2019-03-24T06:48:05.632Z,27.93
2019-03-24T06:50:41.197Z,33.40
2019-03-24T06:53:15.188Z,28.40
2019-03-24T06:55:54.200Z,27.60
2019-03-24T06:58:29.178Z,35.70
2019-03-24T07:01:07.148Z,29.73
2019-03-24T07:03:40.134Z,41.30
2019-03-24T07:06:13.189Z,37.07
2019-03-24T07:08:46.874Z,34.80
2019-03-24T07:11:20.118Z,28.70
2019-03-24T07:13:55.923Z,29.90
2019-03-24T07:16:30.196Z,28.30
2019-03-24T07:19:03.949Z,26.67
2019-03-24T07:21:39.035Z,27.13
2019-03-24T07:24:12.632Z,29.37
2019-03-24T07:26:53.100Z,28.40
2019-03-24T07:29:29.662Z,23.73
2019-03-24T07:32:05.935Z,27.43
2019-03-24T07:34:43.158Z,32.50
2019-03-24T07:37:15.930Z,30.00
2019-03-24T07:39:50.538Z,26.50
2019-03-24T07:42:24.801Z,27.20
2019-03-24T07:44:58.557Z,30.77
2019-03-24T07:47:33.743Z,33.77
2019-03-24T07:50:11.945Z,27.63
2019-03-24T07:52:45.209Z,29.10
2019-03-24T07:55:19.394Z,35.43
2019-03-24T07:57:52.085Z,33.07
2019-03-24T08:00:34.206Z,32.40
2019-03-24T08:03:09.482Z,32.70
2019-03-24T08:05:44.183Z,30.90
2019-03-24T08:08:16.531Z,34.10
2019-03-24T08:10:52.800Z,29.70
2019-03-24T08:13:28.505Z,37.97
2019-03-24T08:16:05.349Z,33.37
2019-03-24T08:18:41.049Z,34.23
2019-03-24T08:21:13.807Z,31.57
2019-03-24T08:23:46.444Z,36.93
2019-03-24T08:26:19.473Z,34.67
2019-03-24T08:28:54.785Z,31.93
2019-03-24T08:31:28.805Z,32.40
2019-03-24T08:34:06.234Z,32.73
2019-03-24T08:36:43.178Z,35.63
2019-03-24T08:39:17.172Z,35.23
2019-03-24T08:41:53.369Z,37.40
2019-03-24T08:44:30.847Z,34.03
2019-03-24T08:47:04.775Z,36.53
2019-03-24T08:49:40.483Z,35.93
2019-03-24T08:52:19.589Z,31.47
2019-03-24T08:54:59.902Z,30.10
2019-03-24T08:57:35.747Z,39.60
2019-03-24T09:00:11.159Z,33.33
2019-03-24T09:02:46.179Z,35.77
2019-03-24T09:05:25.998Z,34.57
2019-03-24T09:08:02.860Z,39.73
2019-03-24T09:10:38.341Z,32.80
2019-03-24T09:13:20.452Z,38.00
2019-03-24T09:15:58.138Z,31.43
2019-03-24T09:18:33.382Z,31.70
2019-03-24T09:21:05.876Z,32.93
2019-03-24T09:23:39.040Z,35.00
2019-03-24T09:26:14.440Z,34.80
2019-03-24T09:28:49.473Z,31.27
2019-03-24T09:31:23.827Z,31.70
2019-03-24T09:33:59.678Z,32.80
2019-03-24T09:36:36.878Z,31.43
2019-03-24T09:39:10.380Z,34.63
2019-03-24T09:41:45.238Z,32.87
2019-03-24T09:44:19.409Z,33.73
2019-03-24T09:46:53.635Z,33.47
2019-03-24T09:49:27.599Z,29.70
2019-03-24T09:52:03.432Z,33.00
2019-03-24T09:54:36.792Z,31.73
2019-03-24T09:57:09.445Z,35.20
2019-03-24T09:59:46.307Z,39.73
2019-03-24T10:02:19.225Z,36.40
2019-03-24T10:04:54.930Z,41.10
2019-03-24T10:07:27.314Z,31.87
2019-03-24T10:10:00.817Z,36.00
2019-03-24T10:12:34.319Z,34.83
2019-03-24T10:15:09.812Z,32.70
2019-03-24T10:17:45.069Z,35.00
2019-03-24T10:20:20.159Z,33.90
2019-03-24T10:22:56.307Z,33.70
2019-03-24T10:25:31.575Z,32.47
2019-03-24T10:28:11.751Z,34.10
2019-03-24T10:30:48.285Z,35.10
2019-03-24T10:33:25.116Z,38.80
2019-03-24T10:36:01.419Z,38.53
2019-03-24T10:38:36.378Z,36.93
2019-03-24T10:41:10.910Z,36.47
2019-03-24T10:43:47.155Z,41.13
2019-03-24T10:46:23.445Z,40.77
2019-03-24T10:49:02.116Z,37.37
2019-03-24T10:51:38.174Z,34.33
2019-03-24T10:54:15.053Z,38.03
2019-03-24T10:56:51.035Z,36.30
2019-03-24T10:59:27.657Z,38.63
2019-03-24T11:02:10.579Z,36.70
2019-03-24T11:04:48.066Z,38.33
2019-03-24T11:07:25.793Z,35.40
2019-03-24T11:10:01.815Z,34.57
2019-03-24T11:12:39.826Z,36.30
2019-03-24T11:15:15.556Z,42.00
2019-03-24T11:17:52.089Z,35.63
2019-03-24T11:20:27.280Z,32.37
2019-03-24T11:23:01.885Z,37.97
2019-03-24T11:25:40.976Z,36.30
2019-03-24T11:28:19.386Z,45.33
2019-03-24T11:30:56.637Z,35.33
2019-03-24T11:33:31.428Z,36.80
2019-03-24T11:36:08.507Z,39.07
2019-03-24T11:38:44.682Z,40.40
2019-03-24T11:41:21.926Z,40.03
2019-03-24T11:44:00.501Z,40.33
2019-03-24T11:46:35.604Z,40.37
2019-03-24T11:49:18.383Z,45.90
2019-03-24T11:51:57.841Z,38.93
2019-03-24T11:54:35.204Z,43.90
2019-03-24T11:57:12.068Z,40.20
2019-03-24T11:59:47.123Z,42.87
2019-03-24T12:02:25.918Z,43.50
2019-03-24T12:05:00.346Z,47.10
2019-03-24T12:07:40.432Z,47.70
2019-03-24T12:10:18.000Z,45.27
2019-03-24T12:12:54.568Z,41.63
2019-03-24T12:15:30.762Z,49.60
2019-03-24T12:18:08.972Z,47.93
2019-03-24T12:20:47.315Z,42.43
2019-03-24T12:23:25.492Z,46.93
2019-03-24T12:26:02.016Z,46.70
2019-03-24T12:28:35.603Z,44.60
2019-03-24T12:38:13.058Z,56.63
2019-03-24T12:40:47.697Z,47.03
2019-03-24T12:43:22.739Z,44.13
2019-03-24T12:45:57.694Z,44.80
2019-03-24T12:48:32.578Z,45.47
2019-03-24T12:51:08.992Z,44.47
2019-03-24T12:53:43.637Z,46.70
2019-03-24T12:56:16.294Z,44.20
2019-03-24T12:58:52.115Z,44.20
2019-03-24T13:01:26.176Z,42.17
2019-03-24T13:03:58.743Z,39.80
2019-03-24T13:06:33.496Z,38.40
2019-03-24T13:09:08.941Z,38.03
2019-03-24T13:11:41.175Z,47.57
2019-03-24T13:14:14.229Z,40.77
2019-03-24T13:16:47.227Z,44.23
2019-03-24T13:19:19.308Z,42.27
2019-03-24T13:21:52.061Z,41.70
2019-03-24T13:24:25.707Z,42.43
2019-03-24T13:26:59.336Z,43.00
2019-03-24T13:29:33.166Z,38.57
2019-03-24T13:32:06.363Z,40.87
2019-03-24T13:34:40.314Z,41.50
2019-03-24T13:37:13.405Z,37.43
2019-03-24T13:39:47.505Z,40.87
2019-03-24T13:42:20.407Z,43.43
2019-03-24T13:44:56.525Z,43.23
2019-03-24T13:47:31.335Z,45.07
2019-03-24T13:50:04.942Z,42.30
2019-03-24T13:52:41.211Z,40.40
2019-03-24T13:55:15.434Z,41.87
2019-03-24T13:57:48.401Z,41.90
2019-03-24T14:00:21.394Z,43.90
2019-03-24T14:02:53.223Z,48.10
2019-03-24T14:05:28.049Z,44.60
2019-03-24T14:08:00.462Z,49.00
2019-03-24T14:10:34.831Z,45.87
2019-03-24T14:13:07.480Z,54.87
2019-03-24T14:15:40.477Z,46.13
2019-03-24T14:18:14.478Z,45.70
2019-03-24T14:20:48.115Z,44.67
2019-03-24T14:23:22.379Z,45.10
2019-03-24T14:25:55.517Z,40.50
2019-03-24T14:28:28.872Z,43.20
2019-03-24T14:31:02.519Z,41.87
2019-03-24T14:33:36.150Z,41.77
2019-03-24T14:36:10.184Z,45.70
2019-03-24T14:38:43.427Z,51.90
2019-03-24T14:41:15.784Z,42.43
2019-03-24T14:43:47.588Z,42.47
2019-03-24T14:46:20.862Z,49.47
2019-03-24T14:48:54.663Z,42.00
2019-03-24T14:51:32.390Z,43.93
2019-03-24T14:54:04.627Z,44.10
2019-03-24T14:56:38.665Z,41.67
2019-03-24T14:59:11.623Z,43.17
2019-03-24T15:01:47.579Z,37.63
2019-03-24T15:04:21.731Z,49.60
2019-03-24T15:06:55.728Z,45.90
2019-03-24T15:09:29.910Z,46.63
2019-03-24T15:12:02.762Z,46.67
2019-03-24T15:14:36.798Z,41.73
2019-03-24T15:17:11.433Z,42.70
2019-03-24T15:19:58.008Z,46.30
2019-03-24T15:22:31.694Z,44.23
2019-03-24T15:25:06.129Z,49.90
2019-03-24T15:27:40.170Z,47.17
2019-03-24T15:30:13.802Z,46.80
2019-03-24T15:32:46.757Z,49.20
2019-03-24T15:35:18.787Z,45.80
2019-03-24T15:37:51.663Z,49.07
2019-03-24T15:40:25.173Z,50.20
2019-03-24T15:42:59.285Z,45.47
2019-03-24T15:45:32.073Z,53.80
2019-03-24T15:48:05.630Z,50.70
2019-03-24T15:50:39.723Z,51.20
2019-03-24T15:53:12.127Z,55.03
2019-03-24T15:55:46.777Z,51.67
2019-03-24T15:58:19.381Z,49.30
2019-03-24T16:00:53.958Z,50.77
2019-03-24T16:03:27.699Z,54.37
2019-03-24T16:06:00.904Z,51.80
2019-03-24T16:08:34.691Z,45.70
2019-03-24T16:11:07.213Z,51.00
2019-03-24T16:13:40.917Z,52.63
2019-03-24T16:16:14.301Z,46.57
2019-03-24T16:18:47.947Z,37.33
2019-03-24T16:21:27.689Z,43.93
2019-03-24T16:23:54.941Z,46.43
2019-03-24T16:26:36.321Z,42.27
2019-03-24T16:29:12.669Z,43.67
2019-03-24T16:31:45.188Z,41.93
2019-03-24T16:34:20.155Z,44.33
2019-03-24T16:36:52.678Z,44.03
2019-03-24T16:39:25.167Z,43.63
2019-03-24T16:41:59.161Z,43.13
2019-03-24T16:44:33.164Z,44.50
2019-03-24T16:47:06.115Z,38.50
2019-03-24T16:49:40.231Z,39.33
2019-03-24T16:52:14.240Z,44.03
2019-03-24T16:54:47.413Z,39.40
2019-03-24T16:57:21.224Z,41.50
2019-03-24T16:59:54.210Z,43.67
2019-03-24T17:02:28.826Z,45.23
2019-03-24T17:05:02.832Z,40.73
2019-03-24T17:07:35.757Z,47.87
2019-03-24T17:10:09.713Z,36.07
2019-03-24T17:12:43.232Z,43.03
2019-03-24T17:15:15.709Z,39.13
2019-03-24T17:17:51.451Z,42.83
2019-03-24T17:20:23.358Z,39.43
2019-03-24T17:22:57.436Z,43.47
2019-03-24T17:25:30.266Z,36.90
2019-03-24T17:28:05.095Z,83.33
2019-03-24T17:30:37.324Z,56.80
2019-03-24T17:33:09.361Z,48.50
2019-03-24T17:35:42.035Z,44.30
2019-03-24T17:38:18.683Z,52.07
2019-03-24T17:40:52.337Z,65.57
2019-03-24T17:43:25.293Z,53.63
2019-03-24T17:45:59.187Z,56.07
2019-03-24T17:48:32.550Z,72.47
2019-03-24T17:51:04.692Z,74.30
2019-03-24T17:53:36.458Z,58.63
2019-03-24T17:56:10.659Z,49.50
2019-03-24T17:58:44.543Z,69.93
2019-03-24T18:01:16.807Z,63.87
2019-03-24T18:03:50.164Z,66.70
2019-03-24T18:06:24.631Z,64.50
2019-03-24T18:08:58.584Z,70.90
2019-03-24T18:11:32.622Z,70.00
2019-03-24T18:14:05.625Z,69.97
2019-03-24T18:16:39.631Z,73.50
2019-03-24T18:19:13.648Z,73.43
2019-03-24T18:21:46.851Z,76.37
2019-03-24T18:24:19.617Z,76.63
2019-03-24T18:26:52.963Z,68.67
2019-03-24T18:29:24.892Z,82.17
2019-03-24T18:31:58.598Z,79.03
2019-03-24T18:34:32.438Z,72.17
2019-03-24T18:37:05.608Z,71.17
2019-03-24T18:39:39.950Z,65.57
2019-03-24T18:42:15.465Z,74.87
2019-03-24T18:44:47.678Z,74.27
2019-03-24T18:47:20.561Z,82.30
2019-03-24T18:49:52.721Z,72.40
2019-03-24T18:52:25.748Z,82.40
2019-03-24T18:55:01.700Z,67.63
2019-03-24T18:57:35.047Z,78.87
2019-03-24T19:00:11.498Z,86.70
2019-03-24T19:02:44.710Z,74.77
2019-03-24T19:05:17.324Z,72.07
2019-03-24T19:08:01.819Z,77.03
2019-03-24T19:10:35.643Z,75.43
2019-03-24T19:13:08.851Z,75.90
2019-03-24T19:15:41.355Z,72.17
2019-03-24T19:18:15.655Z,78.17
2019-03-24T19:20:48.213Z,75.13
2019-03-24T19:23:21.629Z,72.20
2019-03-24T19:25:54.950Z,83.07
2019-03-24T19:28:28.772Z,77.57
2019-03-24T19:31:01.896Z,71.03
2019-03-24T19:33:35.399Z,83.80
2019-03-24T19:36:08.795Z,71.93
2019-03-24T19:38:43.722Z,87.67
2019-03-24T19:41:16.045Z,74.77
2019-03-24T19:43:49.715Z,67.43
2019-03-24T19:53:12.092Z,80.97
2019-03-24T19:55:44.271Z,79.13
2019-03-24T19:58:16.278Z,72.77
2019-03-24T20:00:51.260Z,75.63
2019-03-24T20:03:26.132Z,77.40
2019-03-24T20:05:58.435Z,75.67
2019-03-24T20:08:34.256Z,71.70
2019-03-24T20:11:08.187Z,70.00
2019-03-24T20:13:42.059Z,78.63
2019-03-24T20:16:15.915Z,76.93
2019-03-24T20:18:49.151Z,73.17
2019-03-24T20:21:24.235Z,74.13
2019-03-24T20:23:57.174Z,73.97
2019-03-24T20:26:30.855Z,68.47
2019-03-24T20:29:05.103Z,76.80
2019-03-24T20:32:13.096Z,68.07
2019-03-24T20:34:47.561Z,64.43
2019-03-24T20:37:19.446Z,69.60
2019-03-24T20:39:52.570Z,77.67
2019-03-24T20:42:24.911Z,74.83
2019-03-24T20:44:58.982Z,64.77
2019-03-24T20:47:33.834Z,75.87
2019-03-24T20:50:08.810Z,75.43
2019-03-24T20:52:44.302Z,75.17
2019-03-24T20:55:16.159Z,70.00
2019-03-24T20:57:51.354Z,84.70
2019-03-24T21:00:33.840Z,68.60
2019-03-24T21:03:09.771Z,67.60
2019-03-24T21:05:44.878Z,72.97
2019-03-24T21:08:16.646Z,60.23
2019-03-24T21:10:49.349Z,66.13
2019-03-24T21:13:22.369Z,66.63
2019-03-24T21:15:56.321Z,69.47
2019-03-24T21:18:30.035Z,72.10
2019-03-24T21:21:03.670Z,71.80
2019-03-24T21:23:37.343Z,74.67
2019-03-24T21:26:11.476Z,70.93
2019-03-24T21:28:44.447Z,59.73
2019-03-24T21:31:16.225Z,70.97
2019-03-24T21:33:49.375Z,71.87
2019-03-24T21:36:22.584Z,72.10
2019-03-24T21:38:59.391Z,71.87
2019-03-24T21:41:33.480Z,73.23
2019-03-24T21:44:08.160Z,71.87
2019-03-24T21:46:41.895Z,71.27
2019-03-24T21:49:16.683Z,71.97
2019-03-24T21:51:48.485Z,65.67
2019-03-24T21:54:22.455Z,69.73
2019-03-24T21:56:54.603Z,59.70
2019-03-24T21:59:28.498Z,75.03
2019-03-24T22:02:01.882Z,73.13
2019-03-24T22:04:34.939Z,70.10
2019-03-24T22:07:12.777Z,64.87
2019-03-24T22:09:45.571Z,73.50
2019-03-24T22:12:19.758Z,67.53
2019-03-24T22:14:53.316Z,74.90
2019-03-24T22:17:25.665Z,76.13
2019-03-24T22:19:59.665Z,67.03
2019-03-24T22:22:33.070Z,69.53
2019-03-24T22:25:10.138Z,70.03
2019-03-24T22:27:45.378Z,70.50
2019-03-24T22:30:17.220Z,64.23
2019-03-24T22:32:51.419Z,70.80
2019-03-24T22:35:25.276Z,67.73
2019-03-24T22:38:00.493Z,68.83
2019-03-24T22:40:35.527Z,73.10
2019-03-24T22:43:07.718Z,73.97
2019-03-24T22:45:41.157Z,67.80
2019-03-24T22:48:15.153Z,67.60
2019-03-24T22:50:47.697Z,66.83
2019-03-24T22:53:19.673Z,75.67
2019-03-24T22:55:54.594Z,78.10
2019-03-24T22:58:26.379Z,66.60
2019-03-24T23:00:59.799Z,65.57
2019-03-24T23:03:31.725Z,56.10
2019-03-24T23:06:06.109Z,66.50
2019-03-24T23:08:39.382Z,78.80
2019-03-24T23:11:13.948Z,75.13
2019-03-24T23:13:47.175Z,66.13
2019-03-24T23:16:19.788Z,57.77
2019-03-24T23:18:52.998Z,65.77
2019-03-24T23:21:27.198Z,67.90
2019-03-24T23:24:01.994Z,74.37
2019-03-24T23:26:34.974Z,65.17
2019-03-24T23:29:08.004Z,66.50
2019-03-24T23:31:42.205Z,65.67
2019-03-24T23:34:15.848Z,71.47
2019-03-24T23:36:49.928Z,73.10
2019-03-24T23:39:22.956Z,78.70
2019-03-24T23:41:54.919Z,77.40
2019-03-24T23:44:28.884Z,57.90
2019-03-24T23:47:03.238Z,68.90
2019-03-24T23:49:37.726Z,62.93
2019-03-24T23:52:10.138Z,65.07
2019-03-24T23:54:42.083Z,70.37
2019-03-24T23:57:14.080Z,70.33
2019-03-24T23:59:47.061Z,68.20
